createdAt,value
2017-05-11T03:00:35.833Z,1005.71
2017-05-11T03:01:01.516Z,1005.71
2017-05-11T03:01:27.074Z,1005.67
2017-05-11T03:01:52.715Z,1005.7
2017-05-11T03:02:18.357Z,1005.72
2017-05-11T03:02:43.908Z,1005.68
2017-05-11T03:03:09.462Z,1005.67
2017-05-11T03:03:35.755Z,1005.65
2017-05-11T03:04:01.276Z,1005.7
2017-05-11T03:04:26.941Z,1005.61
2017-05-11T03:04:52.487Z,1005.69
2017-05-11T03:05:18.032Z,1005.69
2017-05-11T03:05:43.615Z,1005.68
2017-05-11T03:06:09.279Z,1005.71
2017-05-11T03:06:34.857Z,1005.69
2017-05-11T03:07:00.405Z,1005.73
2017-05-11T03:07:25.974Z,1005.74
2017-05-11T03:07:51.541Z,1005.66
2017-05-11T03:08:17.104Z,1005.67
2017-05-11T03:08:42.674Z,1005.69
2017-05-11T03:09:08.233Z,1005.67
2017-05-11T03:09:33.808Z,1005.66
2017-05-11T03:09:59.367Z,1005.68
2017-05-11T03:10:24.929Z,1005.66
2017-05-11T03:10:50.501Z,1005.66
2017-05-11T03:11:16.234Z,1005.65
2017-05-11T03:11:41.780Z,1005.65
2017-05-11T03:12:07.341Z,1005.65
2017-05-11T03:12:32.984Z,1005.67
2017-05-11T03:12:58.555Z,1005.65
2017-05-11T03:13:24.113Z,1005.68
2017-05-11T03:13:49.688Z,1005.65
2017-05-11T03:14:15.224Z,1005.69
2017-05-11T03:14:40.756Z,1005.68
2017-05-11T03:15:06.311Z,1005.66
2017-05-11T03:15:31.850Z,1005.7
2017-05-11T03:15:57.394Z,1005.67
2017-05-11T03:16:22.930Z,1005.65
2017-05-11T03:16:48.496Z,1005.67
2017-05-11T03:17:14.151Z,1005.64
2017-05-11T03:17:39.849Z,1005.65
2017-05-11T03:18:05.419Z,1005.66
2017-05-11T03:18:30.984Z,1005.66
2017-05-11T03:18:56.564Z,1005.67
2017-05-11T03:19:22.120Z,1005.64
2017-05-11T03:19:47.849Z,1005.67
2017-05-11T03:20:13.391Z,1005.66
2017-05-11T03:20:38.947Z,1005.63
2017-05-11T03:21:04.600Z,1005.64
2017-05-11T03:21:30.185Z,1005.66
2017-05-11T03:21:55.752Z,1005.65
2017-05-11T03:22:21.305Z,1005.63
2017-05-11T03:22:46.887Z,1005.62
2017-05-11T03:23:12.473Z,1005.65
2017-05-11T03:23:38.041Z,1005.69
2017-05-11T03:24:03.596Z,1005.63
2017-05-11T03:24:29.341Z,1005.61
2017-05-11T03:24:54.887Z,1005.63
2017-05-11T03:25:20.425Z,1005.68
2017-05-11T03:25:46.016Z,1005.65
2017-05-11T03:26:11.560Z,1005.65
2017-05-11T03:26:37.114Z,1005.67
2017-05-11T03:27:02.661Z,1005.66
2017-05-11T03:27:28.211Z,1005.67
2017-05-11T03:27:53.861Z,1005.64
2017-05-11T03:28:19.439Z,1005.68
2017-05-11T03:28:45.048Z,1005.64
2017-05-11T03:29:10.621Z,1005.66
2017-05-11T03:29:36.182Z,1005.64
2017-05-11T03:30:01.745Z,1005.65
2017-05-11T03:30:27.352Z,1005.66
2017-05-11T03:30:52.923Z,1005.66
2017-05-11T03:31:18.489Z,1005.62
2017-05-11T03:31:44.056Z,1005.63
2017-05-11T03:32:09.624Z,1005.61
2017-05-11T03:32:35.277Z,1005.59
2017-05-11T03:33:00.881Z,1005.59
2017-05-11T03:33:26.452Z,1005.62
2017-05-11T03:33:52.025Z,1005.6
2017-05-11T03:34:17.573Z,1005.56
2017-05-11T03:34:43.157Z,1005.61
2017-05-11T03:35:08.721Z,1005.59
2017-05-11T03:35:34.292Z,1005.59
2017-05-11T03:35:59.843Z,1005.59
2017-05-11T03:36:25.390Z,1005.59
2017-05-11T03:36:50.966Z,1005.57
2017-05-11T03:37:16.731Z,1005.61
2017-05-11T03:37:42.281Z,1005.6
2017-05-11T03:38:07.818Z,1005.58
2017-05-11T03:38:33.460Z,1005.56
2017-05-11T03:38:58.997Z,1005.6
2017-05-11T03:39:24.558Z,1005.54
2017-05-11T03:39:50.135Z,1005.59
2017-05-11T03:40:15.711Z,1005.53
2017-05-11T03:40:41.296Z,1005.54
2017-05-11T03:41:06.865Z,1005.54
2017-05-11T03:41:32.432Z,1005.51
2017-05-11T03:41:58.006Z,1005.56
2017-05-11T03:42:23.646Z,1005.53
2017-05-11T03:42:49.170Z,1005.55
2017-05-11T03:43:14.796Z,1005.52
2017-05-11T03:43:40.368Z,1005.54
2017-05-11T03:44:05.935Z,1005.57
2017-05-11T03:44:31.506Z,1005.55
2017-05-11T03:44:57.078Z,1005.53
2017-05-11T03:45:22.642Z,1005.53
2017-05-11T03:45:48.199Z,1005.5
2017-05-11T03:46:13.755Z,1005.49
2017-05-11T03:46:39.331Z,1005.5
2017-05-11T03:47:04.925Z,1005.52
2017-05-11T03:47:30.513Z,1005.47
2017-05-11T03:47:56.075Z,1005.5
2017-05-11T03:48:21.633Z,1005.49
2017-05-11T03:48:47.198Z,1005.47
2017-05-11T03:49:12.811Z,1005.45
2017-05-11T03:49:38.381Z,1005.48
2017-05-11T03:50:03.934Z,1005.44
2017-05-11T03:50:29.495Z,1005.46
2017-05-11T03:50:55.067Z,1005.47
2017-05-11T03:51:20.713Z,1005.46
2017-05-11T03:51:46.306Z,1005.48
2017-05-11T03:52:11.901Z,1005.45
2017-05-11T03:52:37.462Z,1005.48
2017-05-11T03:53:03.028Z,1005.49
2017-05-11T03:53:28.596Z,1005.51
2017-05-11T03:53:54.168Z,1005.49
2017-05-11T03:54:19.808Z,1005.49
2017-05-11T03:54:45.359Z,1005.48
2017-05-11T03:55:10.913Z,1005.48
2017-05-11T03:55:36.452Z,1005.48
2017-05-11T03:56:01.989Z,1005.43
2017-05-11T03:56:27.547Z,1005.42
2017-05-11T03:56:53.184Z,1005.46
2017-05-11T03:57:18.768Z,1005.42
2017-05-11T03:57:44.321Z,1005.46
2017-05-11T03:58:09.959Z,1005.41
2017-05-11T03:58:35.578Z,1005.42
2017-05-11T03:59:01.133Z,1005.44
2017-05-11T03:59:26.684Z,1005.42
2017-05-11T03:59:52.284Z,1005.4
2017-05-11T04:00:17.891Z,1005.4
2017-05-11T04:00:43.439Z,1005.45
2017-05-11T04:01:08.993Z,1005.39
2017-05-11T04:01:34.572Z,1005.4
2017-05-11T04:02:00.135Z,1005.43
2017-05-11T04:02:25.819Z,1005.39
2017-05-11T04:02:51.370Z,1005.36
2017-05-11T04:03:16.963Z,1005.45
2017-05-11T04:03:42.522Z,1005.42
2017-05-11T04:04:08.093Z,1005.39
2017-05-11T04:04:33.651Z,1005.36
2017-05-11T04:04:59.235Z,1005.38
2017-05-11T04:05:24.798Z,1005.42
2017-05-11T04:05:50.335Z,1005.37
2017-05-11T04:06:15.902Z,1005.4
2017-05-11T04:06:41.462Z,1005.39
2017-05-11T04:07:07.021Z,1005.39
2017-05-11T04:07:32.561Z,1005.41
2017-05-11T04:07:58.120Z,1005.39
2017-05-11T04:08:23.664Z,1005.41
2017-05-11T04:08:49.244Z,1005.44
2017-05-11T04:09:14.786Z,1005.43
2017-05-11T04:09:40.356Z,1005.4
2017-05-11T04:10:06.023Z,1005.41
2017-05-11T04:10:31.724Z,1005.47
2017-05-11T04:10:57.305Z,1005.45
2017-05-11T04:11:22.872Z,1005.47
2017-05-11T04:11:48.441Z,1005.49
2017-05-11T04:12:14.012Z,1005.47
2017-05-11T04:12:39.691Z,1005.49
2017-05-11T04:13:05.458Z,1005.49
2017-05-11T04:13:31.034Z,1005.54
2017-05-11T04:13:56.593Z,1005.48
2017-05-11T04:14:22.144Z,1005.54
2017-05-11T04:14:47.707Z,1005.53
2017-05-11T04:15:13.320Z,1005.51
2017-05-11T04:15:38.874Z,1005.52
2017-05-11T04:16:04.441Z,1005.51
2017-05-11T04:16:30.146Z,1005.5
2017-05-11T04:16:55.689Z,1005.54
2017-05-11T04:17:21.223Z,1005.5
2017-05-11T04:17:46.871Z,1005.51
2017-05-11T04:18:12.501Z,1005.48
2017-05-11T04:18:38.115Z,1005.46
2017-05-11T04:19:03.653Z,1005.49
2017-05-11T04:19:29.213Z,1005.49
2017-05-11T04:19:54.783Z,1005.46
2017-05-11T04:20:20.346Z,1005.44
2017-05-11T04:20:45.930Z,1005.48
2017-05-11T04:21:11.494Z,1005.46
2017-05-11T04:21:37.053Z,1005.44
2017-05-11T04:22:02.610Z,1005.45
2017-05-11T04:22:28.199Z,1005.46
2017-05-11T04:22:53.785Z,1005.41
2017-05-11T04:23:19.440Z,1005.44
2017-05-11T04:23:45.024Z,1005.46
2017-05-11T04:24:10.720Z,1005.44
2017-05-11T04:24:36.354Z,1005.44
2017-05-11T04:25:01.904Z,1005.44
2017-05-11T04:25:27.464Z,1005.44
2017-05-11T04:25:53.027Z,1005.42
2017-05-11T04:26:18.597Z,1005.45
2017-05-11T04:26:44.152Z,1005.41
2017-05-11T04:27:09.711Z,1005.45
2017-05-11T04:27:35.267Z,1005.46
2017-05-11T04:28:00.869Z,1005.45
2017-05-11T04:28:26.369Z,1005.42
2017-05-11T04:28:51.911Z,1005.42
2017-05-11T04:29:17.458Z,1005.4
2017-05-11T04:29:43.005Z,1005.42
2017-05-11T04:30:08.664Z,1005.4
2017-05-11T04:30:34.236Z,1005.41
2017-05-11T04:30:59.782Z,1005.38
2017-05-11T04:31:25.351Z,1005.4
2017-05-11T04:31:51.088Z,1005.42
2017-05-11T04:32:16.640Z,1005.37
2017-05-11T04:32:42.206Z,1005.4
2017-05-11T04:33:07.783Z,1005.42
2017-05-11T04:33:33.348Z,1005.37
2017-05-11T04:33:59.008Z,1005.39
2017-05-11T04:34:24.564Z,1005.4
2017-05-11T04:34:50.151Z,1005.4
2017-05-11T04:35:15.718Z,1005.42
2017-05-11T04:35:41.274Z,1005.42
2017-05-11T04:36:06.831Z,1005.44
2017-05-11T04:36:32.391Z,1005.4
2017-05-11T04:36:58.026Z,1005.46
2017-05-11T04:37:23.579Z,1005.43
2017-05-11T04:37:49.117Z,1005.42
2017-05-11T04:38:14.672Z,1005.43
2017-05-11T04:38:40.394Z,1005.43
2017-05-11T04:39:05.929Z,1005.46
2017-05-11T04:39:31.476Z,1005.45
2017-05-11T04:39:57.025Z,1005.51
2017-05-11T04:40:22.591Z,1005.47
2017-05-11T04:40:48.152Z,1005.47
2017-05-11T04:41:13.771Z,1005.46
2017-05-11T04:41:39.322Z,1005.5
2017-05-11T04:42:04.992Z,1005.48
2017-05-11T04:42:30.531Z,1005.5
2017-05-11T04:42:56.104Z,1005.47
2017-05-11T04:44:15.179Z,1005.44
2017-05-11T04:44:40.733Z,1005.51
2017-05-11T04:45:06.282Z,1005.47
2017-05-11T04:45:31.846Z,1005.52
2017-05-11T04:45:57.383Z,1005.48
2017-05-11T04:46:22.943Z,1005.51
2017-05-11T04:46:48.513Z,1005.5
2017-05-11T04:47:14.051Z,1005.49
2017-05-11T04:47:39.620Z,1005.52
2017-05-11T04:48:05.210Z,1005.48
2017-05-11T04:48:30.784Z,1005.51
2017-05-11T04:48:56.395Z,1005.47
2017-05-11T04:49:21.945Z,1005.51
2017-05-11T04:49:47.494Z,1005.46
2017-05-11T04:50:13.074Z,1005.5
2017-05-11T04:50:38.663Z,1005.49
2017-05-11T04:51:04.208Z,1005.52
2017-05-11T04:51:29.797Z,1005.49
2017-05-11T04:51:55.469Z,1005.5
2017-05-11T04:52:21.025Z,1005.48
2017-05-11T04:52:46.707Z,1005.47
2017-05-11T04:53:12.273Z,1005.49
2017-05-11T04:53:37.901Z,1005.46
2017-05-11T04:54:03.444Z,1005.47
2017-05-11T04:54:29.017Z,1005.42
2017-05-11T04:54:54.730Z,1005.48
2017-05-11T04:55:20.282Z,1005.41
2017-05-11T04:55:45.872Z,1005.38
2017-05-11T04:56:11.541Z,1005.41
2017-05-11T04:56:37.083Z,1005.37
2017-05-11T04:57:02.737Z,1005.41
2017-05-11T04:57:28.293Z,1005.39
2017-05-11T04:57:53.856Z,1005.37
2017-05-11T04:58:19.418Z,1005.41
2017-05-11T04:58:45.049Z,1005.35
2017-05-11T04:59:10.623Z,1005.39
2017-05-11T04:59:36.244Z,1005.37
2017-05-11T05:00:01.880Z,1005.37
2017-05-11T05:00:27.450Z,1005.36
2017-05-11T05:00:53.033Z,1005.36
2017-05-11T05:01:18.602Z,1005.36
2017-05-11T05:01:44.193Z,1005.32
2017-05-11T05:02:09.762Z,1005.33
2017-05-11T05:02:35.381Z,1005.37
2017-05-11T05:03:00.943Z,1005.32
2017-05-11T05:03:26.509Z,1005.34
2017-05-11T05:03:52.175Z,1005.34
2017-05-11T05:04:17.775Z,1005.33
2017-05-11T05:04:43.325Z,1005.37
2017-05-11T05:05:09.835Z,1005.34
2017-05-11T05:05:35.399Z,1005.31
2017-05-11T05:06:01.120Z,1005.38
2017-05-11T05:06:26.707Z,1005.35
2017-05-11T05:06:52.279Z,1005.33
2017-05-11T05:07:17.873Z,1005.37
2017-05-11T05:07:43.535Z,1005.32
2017-05-11T05:08:09.089Z,1005.36
2017-05-11T05:08:34.677Z,1005.34
2017-05-11T05:09:00.256Z,1005.37
2017-05-11T05:09:25.842Z,1005.36
2017-05-11T05:09:51.401Z,1005.34
2017-05-11T05:10:16.958Z,1005.38
2017-05-11T05:10:43.040Z,1005.34
2017-05-11T05:11:08.636Z,1005.38
2017-05-11T05:11:34.182Z,1005.4
2017-05-11T05:11:59.734Z,1005.41
2017-05-11T05:12:25.288Z,1005.37
2017-05-11T05:12:50.842Z,1005.37
2017-05-11T05:13:16.441Z,1005.35
2017-05-11T05:13:42.041Z,1005.4
2017-05-11T05:14:07.606Z,1005.38
2017-05-11T05:14:33.160Z,1005.39
2017-05-11T05:14:58.766Z,1005.4
2017-05-11T05:15:24.321Z,1005.41
2017-05-11T05:15:49.878Z,1005.43
2017-05-11T05:16:15.447Z,1005.4
2017-05-11T05:16:41.011Z,1005.37
2017-05-11T05:17:06.569Z,1005.36
2017-05-11T05:17:32.125Z,1005.35
2017-05-11T05:17:57.696Z,1005.42
2017-05-11T05:18:23.313Z,1005.41
2017-05-11T05:18:48.891Z,1005.4
2017-05-11T05:19:14.440Z,1005.4
2017-05-11T05:19:39.999Z,1005.43
2017-05-11T05:20:05.703Z,1005.43
2017-05-11T05:20:31.269Z,1005.44
2017-05-11T05:20:56.940Z,1005.4
2017-05-11T05:21:22.491Z,1005.42
2017-05-11T05:21:48.051Z,1005.41
2017-05-11T05:22:13.602Z,1005.37
2017-05-11T05:22:39.165Z,1005.4
2017-05-11T05:23:04.804Z,1005.4
2017-05-11T05:23:30.377Z,1005.41
2017-05-11T05:23:55.932Z,1005.37
2017-05-11T05:24:21.489Z,1005.37
2017-05-11T05:24:47.143Z,1005.42
2017-05-11T05:25:12.763Z,1005.39
2017-05-11T05:25:38.293Z,1005.35
2017-05-11T05:26:03.972Z,1005.41
2017-05-11T05:26:29.542Z,1005.37
2017-05-11T05:26:55.125Z,1005.37
2017-05-11T05:27:20.692Z,1005.37
2017-05-11T05:27:46.246Z,1005.36
2017-05-11T05:28:11.945Z,1005.4
2017-05-11T05:28:37.508Z,1005.37
2017-05-11T05:29:03.118Z,1005.37
2017-05-11T05:29:28.688Z,1005.38
2017-05-11T05:29:54.247Z,1005.39
2017-05-11T05:30:19.811Z,1005.39
2017-05-11T05:30:45.397Z,1005.35
2017-05-11T05:31:10.977Z,1005.32
2017-05-11T05:31:36.538Z,1005.37
2017-05-11T05:32:02.090Z,1005.34
2017-05-11T05:32:27.637Z,1005.33
2017-05-11T05:32:53.254Z,1005.31
2017-05-11T05:33:18.806Z,1005.31
2017-05-11T05:33:44.361Z,1005.34
2017-05-11T05:34:09.910Z,1005.31
2017-05-11T05:34:35.475Z,1005.28
2017-05-11T05:35:01.041Z,1005.28
2017-05-11T05:35:26.652Z,1005.33
2017-05-11T05:35:52.241Z,1005.27
2017-05-11T05:36:17.782Z,1005.29
2017-05-11T05:36:43.345Z,1005.27
2017-05-11T05:37:08.879Z,1005.33
2017-05-11T05:37:34.422Z,1005.26
2017-05-11T05:37:59.974Z,1005.3
2017-05-11T05:38:25.527Z,1005.3
2017-05-11T05:38:51.196Z,1005.28
2017-05-11T05:39:16.755Z,1005.3
2017-05-11T05:39:42.319Z,1005.25
2017-05-11T05:40:07.901Z,1005.26
2017-05-11T05:40:33.496Z,1005.23
2017-05-11T05:40:59.062Z,1005.26
2017-05-11T05:41:24.648Z,1005.21
2017-05-11T05:41:50.170Z,1005.23
2017-05-11T05:42:15.718Z,1005.22
2017-05-11T05:42:41.281Z,1005.18
2017-05-11T05:43:06.949Z,1005.2
2017-05-11T05:43:32.504Z,1005.19
2017-05-11T05:43:58.061Z,1005.19
2017-05-11T05:44:23.604Z,1005.18
2017-05-11T05:44:49.184Z,1005.18
2017-05-11T05:45:14.752Z,1005.18
2017-05-11T05:45:40.309Z,1005.2
2017-05-11T05:46:05.914Z,1005.18
2017-05-11T05:46:31.578Z,1005.18
2017-05-11T05:46:57.131Z,1005.17
2017-05-11T05:47:22.702Z,1005.2
2017-05-11T05:47:48.400Z,1005.16
2017-05-11T05:48:13.986Z,1005.17
2017-05-11T05:48:39.552Z,1005.19
2017-05-11T05:49:05.201Z,1005.17
2017-05-11T05:49:30.785Z,1005.18
2017-05-11T05:50:49.661Z,1005.14
2017-05-11T05:51:15.228Z,1005.19
2017-05-11T05:51:40.790Z,1005.18
2017-05-11T05:52:06.352Z,1005.23
2017-05-11T05:52:31.934Z,1005.21
2017-05-11T05:52:57.510Z,1005.17
2017-05-11T05:53:23.190Z,1005.18
2017-05-11T05:53:48.728Z,1005.19
2017-05-11T05:54:14.270Z,1005.17
2017-05-11T05:54:39.812Z,1005.17
2017-05-11T05:55:05.383Z,1005.2
2017-05-11T05:55:30.932Z,1005.18
2017-05-11T05:55:56.601Z,1005.17
2017-05-11T05:56:22.174Z,1005.18
2017-05-11T05:56:47.742Z,1005.16
2017-05-11T05:57:13.343Z,1005.17
2017-05-11T05:57:38.915Z,1005.15
2017-05-11T05:58:04.484Z,1005.19
2017-05-11T05:58:30.049Z,1005.18
2017-05-11T05:58:55.613Z,1005.18
2017-05-11T05:59:21.166Z,1005.21
2017-05-11T05:59:46.724Z,1005.22
2017-05-11T06:01:00.435Z,1005.16
2017-05-11T06:01:25.981Z,1005.13
2017-05-11T06:01:51.541Z,1005.14
2017-05-11T06:02:17.098Z,1005.14
2017-05-11T06:02:42.655Z,1005.13
2017-05-11T06:03:08.230Z,1005.12
2017-05-11T06:03:33.825Z,1005.12
2017-05-11T06:03:59.582Z,1005.12
2017-05-11T06:04:25.134Z,1005.1
2017-05-11T06:04:50.708Z,1005.17
2017-05-11T06:05:16.304Z,1005.08
2017-05-11T06:05:41.852Z,1005.11
2017-05-11T06:06:07.422Z,1005.11
2017-05-11T06:06:32.987Z,1005.11
2017-05-11T06:06:58.552Z,1005.13
2017-05-11T06:07:24.208Z,1005.11
2017-05-11T06:07:49.726Z,1005.13
2017-05-11T06:08:15.283Z,1005.13
2017-05-11T06:08:40.880Z,1005.09
2017-05-11T06:09:06.498Z,1005.08
2017-05-11T06:09:32.054Z,1005.09
2017-05-11T06:09:57.621Z,1005.03
2017-05-11T06:10:23.342Z,1005.05
2017-05-11T06:10:48.889Z,1005.02
2017-05-11T06:11:14.445Z,1005.05
2017-05-11T06:11:40.014Z,1005.07
2017-05-11T06:12:05.603Z,1005.04
2017-05-11T06:12:31.145Z,1005.05
2017-05-11T06:12:56.703Z,1005.02
2017-05-11T06:13:22.265Z,1005.06
2017-05-11T06:13:47.815Z,1005.05
2017-05-11T06:14:13.490Z,1005.02
2017-05-11T06:14:39.044Z,1005.05
2017-05-11T06:15:04.624Z,1005.05
2017-05-11T06:15:30.193Z,1005.06
2017-05-11T06:15:55.752Z,1005.07
2017-05-11T06:16:21.332Z,1005.04
2017-05-11T06:16:46.914Z,1004.99
2017-05-11T06:17:12.472Z,1005.01
2017-05-11T06:17:38.042Z,1005.05
2017-05-11T06:18:03.599Z,1005
2017-05-11T06:18:29.140Z,1005
2017-05-11T06:18:54.691Z,1004.99
2017-05-11T06:19:20.246Z,1004.97
2017-05-11T06:19:45.795Z,1005
2017-05-11T06:20:11.428Z,1004.98
2017-05-11T06:20:37.015Z,1005.01
2017-05-11T06:21:02.566Z,1005.01
2017-05-11T06:21:28.255Z,1004.96
2017-05-11T06:21:53.836Z,1004.99
2017-05-11T06:22:19.385Z,1004.98
2017-05-11T06:22:45.055Z,1004.96
2017-05-11T06:23:10.607Z,1004.99
2017-05-11T06:23:36.145Z,1004.99
2017-05-11T06:24:01.718Z,1004.92
2017-05-11T06:24:27.251Z,1004.93
2017-05-11T06:24:52.790Z,1004.96
2017-05-11T06:25:18.357Z,1004.92
2017-05-11T06:25:43.999Z,1004.98
2017-05-11T06:26:09.581Z,1004.9
2017-05-11T06:26:35.137Z,1004.94
2017-05-11T06:27:00.661Z,1004.95
2017-05-11T06:27:26.231Z,1004.92
2017-05-11T06:27:51.910Z,1004.92
2017-05-11T06:28:17.493Z,1004.93
2017-05-11T06:28:43.050Z,1004.89
2017-05-11T06:29:08.630Z,1004.94
2017-05-11T06:29:34.189Z,1004.92
2017-05-11T06:29:59.731Z,1004.93
2017-05-11T06:30:25.332Z,1004.88
2017-05-11T06:30:50.883Z,1004.89
2017-05-11T06:31:16.439Z,1004.91
2017-05-11T06:31:42.012Z,1004.96
2017-05-11T06:32:07.591Z,1004.9
2017-05-11T06:32:33.144Z,1004.95
2017-05-11T06:32:58.746Z,1004.97
2017-05-11T06:33:24.303Z,1004.95
2017-05-11T06:33:49.898Z,1004.97
2017-05-11T06:34:15.623Z,1004.99
2017-05-11T06:34:41.200Z,1004.99
2017-05-11T06:35:06.780Z,1004.97
2017-05-11T06:35:32.382Z,1004.95
2017-05-11T06:35:57.944Z,1004.96
2017-05-11T06:36:23.496Z,1004.96
2017-05-11T06:36:49.079Z,1004.98
2017-05-11T06:37:14.696Z,1004.98
2017-05-11T06:37:40.254Z,1004.98
2017-05-11T06:38:05.797Z,1004.96
2017-05-11T06:38:31.353Z,1004.97
2017-05-11T06:38:56.904Z,1004.9
2017-05-11T06:39:22.562Z,1004.96
2017-05-11T06:39:48.117Z,1004.91
2017-05-11T06:40:13.677Z,1004.93
2017-05-11T06:40:39.342Z,1004.92
2017-05-11T06:41:04.894Z,1004.95
2017-05-11T06:41:30.480Z,1004.98
2017-05-11T06:41:56.044Z,1004.98
2017-05-11T06:42:21.729Z,1004.95
2017-05-11T06:42:47.293Z,1005
2017-05-11T06:43:12.841Z,1004.96
2017-05-11T06:43:38.416Z,1004.98
2017-05-11T06:44:04.001Z,1004.94
2017-05-11T06:44:29.562Z,1004.93
2017-05-11T06:44:55.117Z,1004.96
2017-05-11T06:45:20.661Z,1004.97
2017-05-11T06:45:46.233Z,1004.92
2017-05-11T06:46:11.801Z,1004.95
2017-05-11T06:46:37.363Z,1004.93
2017-05-11T06:47:02.916Z,1004.92
2017-05-11T06:47:28.482Z,1004.94
2017-05-11T06:47:54.086Z,1004.93
2017-05-11T06:48:19.682Z,1004.92
2017-05-11T06:48:45.239Z,1004.98
2017-05-11T06:49:10.819Z,1004.89
2017-05-11T06:49:36.401Z,1004.91
2017-05-11T06:50:02.056Z,1004.88
2017-05-11T06:50:27.613Z,1004.91
2017-05-11T06:50:53.182Z,1004.86
2017-05-11T06:51:18.752Z,1004.86
2017-05-11T06:51:44.295Z,1004.9
2017-05-11T06:52:09.851Z,1004.93
2017-05-11T06:52:35.409Z,1004.95
2017-05-11T06:53:01.071Z,1004.88
2017-05-11T06:53:26.647Z,1004.88
2017-05-11T06:53:52.192Z,1004.9
2017-05-11T06:54:17.742Z,1004.92
2017-05-11T06:54:43.333Z,1004.95
2017-05-11T06:55:08.882Z,1004.93
2017-05-11T06:55:34.441Z,1004.9
2017-05-11T06:55:59.970Z,1004.95
2017-05-11T06:56:25.541Z,1004.91
2017-05-11T06:56:51.104Z,1004.9
2017-05-11T06:57:16.661Z,1004.93
2017-05-11T06:57:42.219Z,1004.95
2017-05-11T06:58:07.810Z,1004.91
2017-05-11T06:58:33.383Z,1004.92
2017-05-11T06:58:58.950Z,1004.93
2017-05-11T06:59:24.517Z,1004.91
2017-05-11T06:59:50.111Z,1004.92
2017-05-11T07:00:15.697Z,1004.95
2017-05-11T07:00:41.282Z,1004.92
2017-05-11T07:01:06.934Z,1004.92
2017-05-11T07:01:32.554Z,1004.98
2017-05-11T07:01:58.266Z,1004.87
2017-05-11T07:02:23.834Z,1004.95
2017-05-11T07:02:49.405Z,1004.94
2017-05-11T07:03:14.951Z,1004.93
2017-05-11T07:03:40.511Z,1004.93
2017-05-11T07:04:06.079Z,1004.89
2017-05-11T07:04:31.636Z,1004.92
2017-05-11T07:04:57.190Z,1004.89
2017-05-11T07:05:22.786Z,1004.9
2017-05-11T07:05:48.434Z,1004.92
2017-05-11T07:06:14.008Z,1004.9
2017-05-11T07:06:39.562Z,1004.89
2017-05-11T07:07:05.168Z,1004.88
2017-05-11T07:07:30.714Z,1004.88
2017-05-11T07:07:56.281Z,1004.84
2017-05-11T07:08:21.884Z,1004.84
2017-05-11T07:08:47.570Z,1004.84
2017-05-11T07:09:13.162Z,1004.88
2017-05-11T07:09:38.730Z,1004.83
2017-05-11T07:10:04.293Z,1004.85
2017-05-11T07:10:29.943Z,1004.85
2017-05-11T07:10:55.513Z,1004.88
2017-05-11T07:11:21.081Z,1004.79
2017-05-11T07:11:46.639Z,1004.8
2017-05-11T07:12:12.193Z,1004.75
2017-05-11T07:12:37.784Z,1004.82
2017-05-11T07:13:03.331Z,1004.81
2017-05-11T07:13:28.951Z,1004.77
2017-05-11T07:13:54.596Z,1004.77
2017-05-11T07:14:20.172Z,1004.78
2017-05-11T07:15:39.085Z,1004.76
2017-05-11T07:16:04.647Z,1004.74
2017-05-11T07:16:30.204Z,1004.75
2017-05-11T07:16:55.761Z,1004.77
2017-05-11T07:17:21.334Z,1004.75
2017-05-11T07:17:46.952Z,1004.75
2017-05-11T07:18:12.524Z,1004.75
2017-05-11T07:18:38.077Z,1004.78
2017-05-11T07:19:03.629Z,1004.75
2017-05-11T07:19:29.199Z,1004.76
2017-05-11T07:19:54.749Z,1004.75
2017-05-11T07:20:20.301Z,1004.74
2017-05-11T07:20:45.862Z,1004.72
2017-05-11T07:21:11.456Z,1004.72
2017-05-11T07:21:37.027Z,1004.71
2017-05-11T07:22:02.611Z,1004.7
2017-05-11T07:22:28.170Z,1004.69
2017-05-11T07:22:53.734Z,1004.69
2017-05-11T07:23:19.304Z,1004.72
2017-05-11T07:23:44.847Z,1004.73
2017-05-11T07:24:10.481Z,1004.67
2017-05-11T07:24:36.065Z,1004.69
2017-05-11T07:25:01.630Z,1004.65
2017-05-11T07:25:27.270Z,1004.65
2017-05-11T07:25:52.838Z,1004.65
2017-05-11T07:26:18.391Z,1004.67
2017-05-11T07:26:43.953Z,1004.66
2017-05-11T07:27:09.520Z,1004.65
2017-05-11T07:27:35.101Z,1004.62
2017-05-11T07:28:00.691Z,1004.65
2017-05-11T07:28:26.253Z,1004.58
2017-05-11T07:28:51.806Z,1004.6
2017-05-11T07:29:17.360Z,1004.61
2017-05-11T07:29:42.956Z,1004.6
2017-05-11T07:30:08.524Z,1004.6
2017-05-11T07:30:34.094Z,1004.63
2017-05-11T07:31:00.183Z,1004.57
2017-05-11T07:31:25.772Z,1004.56
2017-05-11T07:31:51.329Z,1004.58
2017-05-11T07:32:16.874Z,1004.58
2017-05-11T07:32:42.462Z,1004.58
2017-05-11T07:33:08.013Z,1004.62
2017-05-11T07:33:33.568Z,1004.58
2017-05-11T07:33:59.134Z,1004.56
2017-05-11T07:34:24.696Z,1004.56
2017-05-11T07:34:50.239Z,1004.54
2017-05-11T07:35:15.868Z,1004.54
2017-05-11T07:35:41.422Z,1004.52
2017-05-11T07:36:06.969Z,1004.54
2017-05-11T07:36:32.601Z,1004.49
2017-05-11T07:36:58.179Z,1004.54
2017-05-11T07:37:23.701Z,1004.55
2017-05-11T07:37:49.248Z,1004.5
2017-05-11T07:38:14.804Z,1004.49
2017-05-11T07:38:40.362Z,1004.5
2017-05-11T07:39:05.913Z,1004.48
2017-05-11T07:39:31.459Z,1004.53
2017-05-11T07:39:57.020Z,1004.51
2017-05-11T07:40:22.572Z,1004.5
2017-05-11T07:41:20.972Z,1004.51
2017-05-11T07:41:46.542Z,1004.51
2017-05-11T07:42:12.114Z,1004.53
2017-05-11T07:42:37.662Z,1004.55
2017-05-11T07:43:03.218Z,1004.5
2017-05-11T07:43:28.777Z,1004.51
2017-05-11T07:43:54.363Z,1004.54
2017-05-11T07:44:19.957Z,1004.5
2017-05-11T07:44:45.511Z,1004.48
2017-05-11T07:45:11.132Z,1004.52
2017-05-11T07:45:36.702Z,1004.47
2017-05-11T07:46:02.261Z,1004.54
2017-05-11T07:46:27.810Z,1004.51
2017-05-11T07:46:53.356Z,1004.48
2017-05-11T07:47:18.935Z,1004.52
2017-05-11T07:47:44.474Z,1004.48
2017-05-11T07:48:10.091Z,1004.45
2017-05-11T07:48:35.631Z,1004.51
2017-05-11T07:49:01.172Z,1004.45
2017-05-11T07:49:26.822Z,1004.48
2017-05-11T07:49:52.387Z,1004.5
2017-05-11T07:50:17.940Z,1004.43
2017-05-11T07:50:43.504Z,1004.44
2017-05-11T07:51:09.121Z,1004.42
2017-05-11T07:51:34.669Z,1004.43
2017-05-11T07:52:00.240Z,1004.47
2017-05-11T07:52:25.752Z,1004.38
2017-05-11T07:52:51.293Z,1004.4
2017-05-11T07:53:16.836Z,1004.38
2017-05-11T07:53:42.382Z,1004.41
2017-05-11T07:54:08.007Z,1004.36
2017-05-11T07:54:33.576Z,1004.4
2017-05-11T07:54:59.164Z,1004.37
2017-05-11T07:55:24.734Z,1004.35
2017-05-11T07:55:50.360Z,1004.35
2017-05-11T07:56:15.921Z,1004.36
2017-05-11T07:56:41.482Z,1004.38
2017-05-11T07:57:07.138Z,1004.38
2017-05-11T07:57:32.739Z,1004.36
2017-05-11T07:57:58.301Z,1004.37
2017-05-11T07:58:23.854Z,1004.36
2017-05-11T07:58:49.403Z,1004.33
2017-05-11T07:59:15.018Z,1004.34
2017-05-11T07:59:40.563Z,1004.35
2017-05-11T08:00:06.108Z,1004.35
2017-05-11T08:00:31.673Z,1004.37
2017-05-11T08:00:57.328Z,1004.34
2017-05-11T08:01:22.900Z,1004.32
2017-05-11T08:01:48.476Z,1004.34
2017-05-11T08:02:14.021Z,1004.36
2017-05-11T08:02:39.594Z,1004.33
2017-05-11T08:03:05.159Z,1004.31
2017-05-11T08:03:30.724Z,1004.27
2017-05-11T08:03:56.283Z,1004.34
2017-05-11T08:04:21.882Z,1004.34
2017-05-11T08:04:47.487Z,1004.33
2017-05-11T08:05:13.084Z,1004.31
2017-05-11T08:05:38.659Z,1004.3
2017-05-11T08:06:04.218Z,1004.32
2017-05-11T08:06:29.927Z,1004.27
2017-05-11T08:06:55.505Z,1004.35
2017-05-11T08:07:21.105Z,1004.31
2017-05-11T08:07:46.669Z,1004.29
2017-05-11T08:08:12.231Z,1004.27
2017-05-11T08:08:37.864Z,1004.27
2017-05-11T08:09:51.735Z,1004.23
2017-05-11T08:10:17.279Z,1004.25
2017-05-11T08:10:42.833Z,1004.25
2017-05-11T08:11:08.381Z,1004.2
2017-05-11T08:11:33.942Z,1004.22
2017-05-11T08:11:59.550Z,1004.23
2017-05-11T08:12:25.135Z,1004.19
2017-05-11T08:12:50.697Z,1004.23
2017-05-11T08:13:16.303Z,1004.15
2017-05-11T08:13:41.943Z,1004.17
2017-05-11T08:14:07.501Z,1004.17
2017-05-11T08:14:33.054Z,1004.18
2017-05-11T08:14:58.626Z,1004.19
2017-05-11T08:15:24.167Z,1004.21
2017-05-11T08:15:49.725Z,1004.18